Time;durP1;ratioP1;P1;durP2;ratioP2;P2;SDS_P1;SDS_P2;PMS_P1;PMS_P2;Temp;Humidity;BMP_temperature;BMP_pressure;BME280_temperature;BME280_humidity;BME280_pressure;Samples;Min_cycle;Max_cycle;Signal;HPM_P1;HPM_P2
2022/04/05 00:02:18;;;;;;;;;;;10.70;99.90;;;;;;6251879;22;19907;-88
2022/04/05 00:04:44;;;;;;;;;;;10.70;99.90;;;;;;6252077;22;19942;-88
2022/04/05 00:07:09;;;;;;;;;;;10.70;99.90;;;;;;6251897;22;19942;-88
2022/04/05 00:09:37;;;;;;;;;;;10.70;99.90;;;;;;6251610;22;20270;-87
2022/04/05 00:12:06;;;;;;;;;;;10.60;99.90;;;;;;6251997;22;19982;-88
2022/04/05 00:14:43;;;;;;;;;;;10.70;99.90;;;;;;6278831;22;20361;-88
2022/04/05 00:17:11;;;;;;;;;;;10.60;99.90;;;;;;6251526;22;20257;-88
2022/04/05 00:19:39;;;;;;;;;;;10.60;99.90;;;;;;6250794;22;20317;-88
2022/04/05 00:22:12;;;;;;;;;;;10.60;99.90;;;;;;6251546;22;20234;-88
2022/04/05 00:24:43;;;;;;;;;;;10.50;99.90;;;;;;6251797;22;19907;-88
2022/04/05 00:27:08;;;;;;;;;;;10.50;99.90;;;;;;6251656;22;19907;-88
2022/04/05 00:29:36;;;;;;;;;;;10.30;99.90;;;;;;6226552;22;19914;-88
2022/04/05 00:32:05;;;;;;;;;;;10.20;99.90;;;;;;6227264;22;19935;-87
2022/04/05 00:34:33;;;;;;;;;;;10.20;99.90;;;;;;6252738;22;19982;-88
2022/04/05 00:36:59;;;;;;;;;;;10.10;99.90;;;;;;6263907;22;19895;-87
2022/04/05 00:39:26;;;;;;;;;;;10.00;99.90;;;;;;6304302;22;19955;-91
2022/04/05 00:41:55;;;;;;;;;;;9.90;99.90;;;;;;6277907;22;19896;-86
2022/04/05 00:44:26;;;;;;;;;;;9.80;99.90;;;;;;6267623;22;19935;-88
2022/04/05 00:46:55;;;;;;;;;;;9.70;99.90;;;;;;6253463;22;19922;-88
2022/04/05 00:49:26;;;;;;;;;;;9.70;99.90;;;;;;6251731;22;19922;-87
2022/04/05 00:51:54;;;;;;;;;;;9.60;99.90;;;;;;6252054;22;19990;-87
2022/04/05 00:54:39;;;;;;;;;;;9.50;99.90;;;;;;6251344;22;19903;-87
2022/04/05 00:57:10;;;;;;;;;;;9.50;99.90;;;;;;6251470;22;19904;-88
2022/04/05 00:59:41;;;;;;;;;;;9.50;99.90;;;;;;6277812;22;19907;-87
2022/04/05 01:02:09;;;;;;;;;;;9.50;99.90;;;;;;6251132;22;19907;-87
2022/04/05 01:04:38;;;;;;;;;;;9.40;99.90;;;;;;6251123;22;19914;-86
2022/04/05 01:07:05;;;;;;;;;;;9.50;99.90;;;;;;6251177;22;19907;-87
2022/04/05 01:09:34;;;;;;;;;;;9.50;99.90;;;;;;6224687;22;19907;-88
2022/04/05 01:12:20;;;;;;;;;;;9.50;99.90;;;;;;6251249;22;19937;-87
2022/04/05 01:14:50;;;;;;;;;;;9.50;99.90;;;;;;6277266;22;20325;-87
2022/04/05 01:17:17;;;;;;;;;;;9.40;99.90;;;;;;6251542;22;19968;-88
2022/04/05 01:19:54;;;;;;;;;;;;;;;;;;;;;
2022/04/05 01:22:23;;;;;;;;;;;9.40;99.90;;;;;;6278699;22;19989;-87
2022/04/05 01:24:52;;;;;;;;;;;9.40;99.90;;;;;;6251036;22;19981;-88
2022/04/05 01:27:27;;;;;;;;;;;9.40;99.90;;;;;;6251319;22;19925;-88
2022/04/05 01:29:53;;;;;;;;;;;9.40;99.90;;;;;;6251479;22;19903;-88
2022/04/05 01:32:24;;;;;;;;;;;9.30;99.90;;;;;;6250888;22;19996;-87
2022/04/05 01:34:52;;;;;;;;;;;9.40;99.90;;;;;;6250832;22;19903;-87
2022/04/05 01:37:21;;;;;;;;;;;9.40;99.90;;;;;;6250936;22;19953;-88
2022/04/05 01:39:49;;;;;;;;;;;9.30;99.90;;;;;;6250424;22;19907;-87
2022/04/05 01:42:24;;;;;;;;;;;9.30;99.90;;;;;;6250769;22;20340;-87
2022/04/05 01:44:50;;;;;;;;;;;9.40;99.90;;;;;;6251010;22;19904;-88
2022/04/05 01:47:19;;;;;;;;;;;9.40;99.90;;;;;;6251008;22;19945;-88
2022/04/05 01:49:49;;;;;;;;;;;9.40;99.90;;;;;;6250695;22;19989;-88
2022/04/05 01:52:35;;;;;;;;;;;9.30;99.90;;;;;;6251113;22;19927;-87
2022/04/05 01:55:00;;;;;;;;;;;9.30;99.90;;;;;;6249770;22;19903;-87
2022/04/05 01:57:28;;;;;;;;;;;9.40;99.90;;;;;;6252608;22;19953;-87
2022/04/05 02:00:02;;;;;;;;;;;9.40;99.90;;;;;;6252143;22;20359;-88
2022/04/05 02:02:27;;;;;;;;;;;9.30;99.90;;;;;;6252967;22;20309;-88
2022/04/05 02:04:55;;;;;;;;;;;9.30;99.90;;;;;;6252885;22;19930;-88
2022/04/05 02:07:21;;;;;;;;;;;9.30;99.90;;;;;;6252721;22;19919;-87
2022/04/05 02:09:53;;;;;;;;;;;9.40;99.90;;;;;;6252669;22;19982;-88
2022/04/05 02:12:18;;;;;;;;;;;9.40;99.90;;;;;;6270029;22;19907;-87
2022/04/05 02:14:47;;;;;;;;;;;9.40;99.90;;;;;;6280163;22;19902;-90
2022/04/05 02:17:12;;;;;;;;;;;9.30;99.90;;;;;;6280380;22;19909;-87
2022/04/05 02:19:40;;;;;;;;;;;9.30;99.90;;;;;;6254150;22;19905;-85
2022/04/05 02:22:08;;;;;;;;;;;9.40;99.90;;;;;;6262927;22;19911;-87
2022/04/05 02:24:39;;;;;;;;;;;9.40;99.90;;;;;;6253024;22;19904;-88
2022/04/05 02:27:07;;;;;;;;;;;9.40;99.90;;;;;;6253167;22;19904;-88
2022/04/05 02:29:35;;;;;;;;;;;9.40;99.90;;;;;;6252510;22;20008;-90
2022/04/05 02:32:05;;;;;;;;;;;9.40;99.90;;;;;;6252754;22;20211;-88
2022/04/05 02:34:31;;;;;;;;;;;9.40;99.90;;;;;;6227622;22;20277;-88
2022/04/05 02:36:56;;;;;;;;;;;9.40;99.90;;;;;;6252019;22;19903;-87
2022/04/05 02:39:24;;;;;;;;;;;9.40;99.90;;;;;;6252186;22;19931;-88
2022/04/05 02:41:57;;;;;;;;;;;9.30;99.90;;;;;;6252361;22;19907;-87
2022/04/05 02:44:33;;;;;;;;;;;9.30;99.90;;;;;;6226944;22;19914;-88
2022/04/05 02:46:59;;;;;;;;;;;9.40;99.90;;;;;;6227855;22;19919;-88
2022/04/05 02:49:27;;;;;;;;;;;9.30;99.90;;;;;;6279347;22;19910;-87
2022/04/05 02:51:57;;;;;;;;;;;9.30;99.90;;;;;;6252377;22;20297;-88
2022/04/05 02:54:31;;;;;;;;;;;9.30;99.90;;;;;;6251755;22;19904;-89
2022/04/05 02:56:59;;;;;;;;;;;9.30;99.90;;;;;;6252540;22;19953;-87
2022/04/05 02:59:37;;;;;;;;;;;;;;;;;;;;;
2022/04/05 03:02:06;;;;;;;;;;;9.30;99.90;;;;;;6279296;22;19990;-87
2022/04/05 03:04:39;;;;;;;;;;;9.30;99.90;;;;;;6252025;22;20297;-87
2022/04/05 03:07:16;;;;;;;;;;;9.30;99.90;;;;;;6252072;22;19957;-87
2022/04/05 03:09:56;;;;;;;;;;;9.30;99.90;;;;;;6278751;22;19903;-87
2022/04/05 03:12:24;;;;;;;;;;;9.30;99.90;;;;;;6252071;22;19904;-88
2022/04/05 03:14:50;;;;;;;;;;;9.30;99.90;;;;;;6251509;22;20339;-87
2022/04/05 03:17:26;;;;;;;;;;;;;;;;;;;;;
2022/04/05 03:19:58;;;;;;;;;;;9.20;99.90;;;;;;6278344;22;20299;-87
2022/04/05 03:22:31;;;;;;;;;;;9.30;99.90;;;;;;6251836;22;19982;-87
2022/04/05 03:24:56;;;;;;;;;;;9.20;99.90;;;;;;6251482;22;19903;-87
2022/04/05 03:27:24;;;;;;;;;;;9.20;99.90;;;;;;6252137;22;19978;-88
2022/04/05 03:29:52;;;;;;;;;;;9.30;99.90;;;;;;6252158;22;19907;-87
2022/04/05 03:32:21;;;;;;;;;;;9.30;99.90;;;;;;6227550;22;19938;-87
2022/04/05 03:34:49;;;;;;;;;;;9.30;99.90;;;;;;6252198;22;19910;-87
2022/04/05 03:37:23;;;;;;;;;;;9.30;99.90;;;;;;6279504;22;19953;-88
2022/04/05 03:39:59;;;;;;;;;;;9.30;99.90;;;;;;6253334;22;19939;-87
2022/04/05 03:42:27;;;;;;;;;;;9.30;99.90;;;;;;6228794;22;20318;-87
2022/04/05 03:45:03;;;;;;;;;;;9.20;99.90;;;;;;6254097;22;19903;-88
2022/04/05 03:47:31;;;;;;;;;;;9.20;99.90;;;;;;6278406;22;19903;-88
2022/04/05 03:50:19;;;;;;;;;;;9.20;99.90;;;;;;6278856;22;19896;-88
2022/04/05 03:52:49;;;;;;;;;;;9.20;99.90;;;;;;6296066;22;20242;-88
2022/04/05 03:55:45;;;;;;;;;;;9.20;99.90;;;;;;6247760;22;19914;-87
2022/04/05 03:58:27;;;;;;;;;;;9.10;99.90;;;;;;6255597;22;20336;-88
2022/04/05 04:00:53;;;;;;;;;;;9.10;99.90;;;;;;6228230;22;19918;-87
2022/04/05 04:03:31;;;;;;;;;;;;;;;;;;;;;
2022/04/05 04:05:59;;;;;;;;;;;9.20;99.90;;;;;;6254437;22;19979;-88
2022/04/05 04:08:35;;;;;;;;;;;9.20;99.90;;;;;;6252121;22;19929;-88
2022/04/05 04:11:14;;;;;;;;;;;9.10;99.90;;;;;;6278956;22;19903;-87
2022/04/05 04:13:47;;;;;;;;;;;9.10;99.90;;;;;;6228102;22;19973;-87
2022/04/05 04:16:15;;;;;;;;;;;9.20;99.90;;;;;;6251848;22;20230;-87
2022/04/05 04:18:46;;;;;;;;;;;9.20;99.90;;;;;;6251273;22;19907;-87
2022/04/05 04:21:20;;;;;;;;;;;9.10;99.90;;;;;;6251492;22;20309;-88
2022/04/05 04:24:07;;;;;;;;;;;9.20;99.90;;;;;;6251170;22;19911;-88
2022/04/05 04:26:33;;;;;;;;;;;9.20;99.90;;;;;;6276694;22;19903;-86
2022/04/05 04:29:04;;;;;;;;;;;9.20;99.90;;;;;;6250812;22;19903;-86
2022/04/05 04:31:40;;;;;;;;;;;9.20;99.90;;;;;;6251296;22;19903;-87
2022/04/05 04:34:08;;;;;;;;;;;9.20;99.90;;;;;;6226456;22;20273;-87
2022/04/05 04:36:33;;;;;;;;;;;9.20;99.90;;;;;;6250878;22;20318;-86
2022/04/05 04:39:09;;;;;;;;;;;9.20;99.90;;;;;;6250756;22;19946;-87
2022/04/05 04:41:37;;;;;;;;;;;9.10;99.90;;;;;;6251013;22;20277;-86
2022/04/05 04:44:13;;;;;;;;;;;;;;;;;;;;;
2022/04/05 04:46:49;;;;;;;;;;;9.20;99.90;;;;;;6278366;22;19990;-88
2022/04/05 04:49:28;;;;;;;;;;;9.20;99.90;;;;;;6252109;22;19915;-88
2022/04/05 04:51:58;;;;;;;;;;;9.20;99.90;;;;;;6278451;22;20005;-88
2022/04/05 04:57:25;;;;;;;;;;;;;;;;;;;;;
2022/04/05 05:00:02;;;;;;;;;;;9.20;99.90;;;;;;6279264;22;19986;-89
2022/04/05 05:02:35;;;;;;;;;;;9.20;99.90;;;;;;6252345;22;19907;-89
2022/04/05 05:05:07;;;;;;;;;;;9.20;99.90;;;;;;6251625;22;19978;-91
2022/04/05 05:07:51;;;;;;;;;;;;;;;;;;;;;
2022/04/05 05:10:27;;;;;;;;;;;9.20;99.90;;;;;;6279445;22;19978;-89
2022/04/05 05:13:06;;;;;;;;;;;9.20;99.90;;;;;;6252702;22;20288;-89
2022/04/05 05:28:02;;;;;;;;;;;;;;;;;;;;;
2022/04/05 05:37:06;;;;;;;;;;;;;;;;;;;;;
2022/04/05 05:39:30;;;;;;;;;;;9.20;99.90;;;;;;6246173;23;20002;-89
2022/04/05 05:45:37;;;;;;;;;;;9.20;99.90;;;;;;6127598;23;19928;-88
2022/04/05 05:48:33;;;;;;;;;;;9.20;99.90;;;;;;6222693;23;19904;-89
2022/04/05 06:00:21;;;;;;;;;;;;;;;;;;;;;
2022/04/05 06:03:17;;;;;;;;;;;9.30;99.90;;;;;;6242316;23;19948;-89
2022/04/05 06:15:13;;;;;;;;;;;9.40;99.90;;;;;;6043543;23;19914;-85
2022/04/05 06:30:39;;;;;;;;;;;9.70;99.90;;;;;;6208333;23;19925;-88
2022/04/05 06:39:38;;;;;;;;;;;9.90;99.90;;;;;;6204871;23;20284;-88
2022/04/05 06:52:00;;;;;;;;;;;;;;;;;;;;;
2022/04/05 07:04:54;;;;;;;;;;;10.10;99.90;;;;;;6095036;23;19901;-93
2022/04/05 07:10:47;;;;;;;;;;;;;;;;;;;;;
2022/04/05 07:17:00;;;;;;;;;;;10.20;99.90;;;;;;6058269;23;19906;-89
2022/04/05 07:19:53;;;;;;;;;;;10.30;99.90;;;;;;6068363;23;19920;-88
2022/04/05 07:22:53;;;;;;;;;;;10.30;99.90;;;;;;6131199;23;19905;-89
2022/04/05 07:44:23;;;;;;;;;;;;;;;;;;;;;
2022/04/05 07:46:52;;;;;;;;;;;10.40;99.90;;;;;;6143094;23;19979;-89
2022/04/05 07:49:47;;;;;;;;;;;10.50;99.90;;;;;;6106727;23;19912;-89
2022/04/05 07:55:06;;;;;;;;;;;10.60;99.90;;;;;;6248328;23;19935;-89
2022/04/05 07:57:42;;;;;;;;;;;;;;;;;;;;;
2022/04/05 08:00:27;;;;;;;;;;;;;;;;;;;;;
2022/04/05 08:12:47;;;;;;;;;;;;;;;;;;;;;
2022/04/05 08:15:46;;;;;;;;;;;;;;;;;;;;;
2022/04/05 08:24:08;;;;;;;;;;;10.80;99.90;;;;;;6077167;23;20324;-88
2022/04/05 08:26:34;;;;;;;;;;;10.80;99.90;;;;;;6072846;23;19932;-89
2022/04/05 08:29:12;;;;;;;;;;;10.80;99.90;;;;;;6129961;23;19947;-88
2022/04/05 08:31:51;;;;;;;;;;;10.80;99.90;;;;;;6200310;23;19939;-88
2022/04/05 08:34:22;;;;;;;;;;;10.80;99.90;;;;;;6218971;23;19912;-88
2022/04/05 08:36:58;;;;;;;;;;;10.80;99.90;;;;;;6246985;23;19952;-88
2022/04/05 08:39:36;;;;;;;;;;;10.80;99.90;;;;;;6223953;23;19903;-88
2022/04/05 08:42:14;;;;;;;;;;;10.90;99.90;;;;;;6223632;23;19947;-89
2022/04/05 08:44:47;;;;;;;;;;;10.90;99.90;;;;;;6207657;23;20306;-87
2022/04/05 08:47:31;;;;;;;;;;;;;;;;;;;;;
2022/04/05 08:50:08;;;;;;;;;;;10.90;99.90;;;;;;6248763;23;19974;-89
2022/04/05 08:52:42;;;;;;;;;;;10.90;99.90;;;;;;6221639;23;19910;-88
2022/04/05 08:55:32;;;;;;;;;;;11.00;99.90;;;;;;6221996;23;19908;-91
2022/04/05 08:58:25;;;;;;;;;;;11.00;99.90;;;;;;6221232;23;19907;-87
2022/04/05 09:00:56;;;;;;;;;;;11.00;99.90;;;;;;6220737;23;19927;-88
2022/04/05 09:09:39;;;;;;;;;;;11.20;99.90;;;;;;6224587;23;19978;-90
2022/04/05 09:12:28;;;;;;;;;;;;;;;;;;;;;
2022/04/05 09:15:19;;;;;;;;;;;;;;;;;;;;;
2022/04/05 09:27:28;;;;;;;;;;;11.40;99.90;;;;;;6040334;23;19953;-88
2022/04/05 09:30:21;;;;;;;;;;;11.50;99.90;;;;;;6214679;23;19903;-88
2022/04/05 09:42:13;;;;;;;;;;;11.70;99.90;;;;;;6186894;23;19908;-89
2022/04/05 09:45:04;;;;;;;;;;;11.80;99.90;;;;;;6198209;23;19919;-90
2022/04/05 09:50:53;;;;;;;;;;;11.80;99.90;;;;;;6127047;23;19937;-88
2022/04/05 09:53:25;;;;;;;;;;;11.70;99.90;;;;;;6101988;23;19952;-89
2022/04/05 09:56:25;;;;;;;;;;;11.70;99.90;;;;;;6190656;23;19911;-90
2022/04/05 10:04:32;;;;;;;;;;;11.80;99.90;;;;;;6233341;23;19908;-89
2022/04/05 10:07:20;;;;;;;;;;;11.80;99.90;;;;;;6222612;23;19935;-89
2022/04/05 10:10:06;;;;;;;;;;;11.80;99.90;;;;;;6074718;23;20256;-89
2022/04/05 10:12:39;;;;;;;;;;;11.80;99.90;;;;;;5987446;24;20004;-88
2022/04/05 10:15:13;;;;;;;;;;;11.80;99.90;;;;;;6197258;22;19892;-89
2022/04/05 10:17:45;;;;;;;;;;;11.80;99.90;;;;;;6225238;23;19933;-88
2022/04/05 10:20:27;;;;;;;;;;;11.80;99.90;;;;;;6249617;23;19943;-89
2022/04/05 10:23:06;;;;;;;;;;;;;;;;;;;;;
2022/04/05 10:25:43;;;;;;;;;;;11.70;99.90;;;;;;6229642;23;20338;-89
2022/04/05 10:28:15;;;;;;;;;;;11.70;99.90;;;;;;6223432;23;19908;-89
2022/04/05 10:31:07;;;;;;;;;;;11.80;99.90;;;;;;6223023;23;19903;-90
2022/04/05 10:37:09;;;;;;;;;;;11.80;99.90;;;;;;6130973;23;19920;-87
2022/04/05 10:39:55;;;;;;;;;;;11.80;99.90;;;;;;6249324;23;20417;-88
2022/04/05 10:42:47;;;;;;;;;;;11.90;99.90;;;;;;6220500;23;20282;-89
2022/04/05 10:45:45;;;;;;;;;;;;;;;;;;;;;
2022/04/05 10:54:36;;;;;;;;;;;12.00;99.90;;;;;;6100955;23;19905;-90
2022/04/05 10:57:35;;;;;;;;;;;12.00;99.90;;;;;;6183015;23;20304;-87
2022/04/05 11:00:21;;;;;;;;;;;12.00;99.90;;;;;;6221216;23;19912;-87
2022/04/05 11:02:58;;;;;;;;;;;12.00;99.90;;;;;;6221624;23;19908;-88
2022/04/05 11:05:35;;;;;;;;;;;;;;;;;;;;;
2022/04/05 11:08:10;;;;;;;;;;;12.00;99.90;;;;;;6248003;23;20346;-86
2022/04/05 11:10:38;;;;;;;;;;;12.00;99.90;;;;;;6195895;23;19915;-86
2022/04/05 11:13:12;;;;;;;;;;;11.90;99.90;;;;;;6221936;23;20222;-87
2022/04/05 11:15:48;;;;;;;;;;;12.00;99.90;;;;;;6222121;23;19911;-86
2022/04/05 11:18:19;;;;;;;;;;;11.90;99.90;;;;;;6221228;23;19986;-87
2022/04/05 11:20:53;;;;;;;;;;;12.00;99.90;;;;;;6221702;23;19982;-86
2022/04/05 11:23:39;;;;;;;;;;;12.00;99.90;;;;;;6222137;23;19907;-87
2022/04/05 11:26:24;;;;;;;;;;;12.00;99.90;;;;;;6197151;23;19908;-87
2022/04/05 11:28:50;;;;;;;;;;;12.10;99.90;;;;;;6220713;23;20282;-86
2022/04/05 11:31:31;;;;;;;;;;;12.10;99.90;;;;;;6221572;23;19904;-87
2022/04/05 11:40:26;;;;;;;;;;;12.10;99.90;;;;;;6161559;23;19912;-87
2022/04/05 11:43:32;;;;;;;;;;;12.10;99.90;;;;;;6192531;23;19931;-88
2022/04/05 11:46:27;;;;;;;;;;;12.10;99.90;;;;;;6218676;23;19932;-87
2022/04/05 11:52:10;;;;;;;;;;;12.20;99.90;;;;;;6172454;23;19904;-86
2022/04/05 11:57:41;;;;;;;;;;;12.20;99.90;;;;;;6243349;23;20299;-90
2022/04/05 12:00:21;;;;;;;;;;;12.10;99.90;;;;;;6216163;23;19988;-89
2022/04/05 12:03:10;;;;;;;;;;;;;;;;;;;;;
2022/04/05 12:05:53;;;;;;;;;;;12.20;99.90;;;;;;6227174;23;19939;-86
2022/04/05 12:08:32;;;;;;;;;;;12.20;99.90;;;;;;6191179;23;19903;-87
2022/04/05 12:11:00;;;;;;;;;;;12.30;99.90;;;;;;6190809;23;19916;-85
2022/04/05 12:13:34;;;;;;;;;;;12.30;99.90;;;;;;6191333;23;19947;-86
2022/04/05 12:16:27;;;;;;;;;;;12.30;99.90;;;;;;6191455;23;19912;-91
2022/04/05 12:19:05;;;;;;;;;;;12.30;99.90;;;;;;6214765;23;19954;-86
2022/04/05 12:24:33;;;;;;;;;;;12.40;99.90;;;;;;6201701;23;19908;-87
2022/04/05 12:27:02;;;;;;;;;;;12.40;99.90;;;;;;6191212;23;19931;-85
2022/04/05 12:29:29;;;;;;;;;;;12.50;99.90;;;;;;6190437;23;19914;-85
2022/04/05 12:32:05;;;;;;;;;;;;;;;;;;;;;
2022/04/05 12:34:53;;;;;;;;;;;12.60;99.90;;;;;;6217804;23;20044;-86
2022/04/05 12:37:39;;;;;;;;;;;12.60;99.90;;;;;;6197255;23;19916;-86
2022/04/05 12:40:24;;;;;;;;;;;12.70;99.90;;;;;;6190013;23;19919;-86
2022/04/05 12:42:57;;;;;;;;;;;12.70;99.90;;;;;;6191026;23;19904;-83
2022/04/05 12:46:05;;;;;;;;;;;;;;;;;;;;;
2022/04/05 12:48:31;;;;;;;;;;;12.70;99.90;;;;;;6143457;23;20023;-86
2022/04/05 12:50:59;;;;;;;;;;;12.70;99.90;;;;;;6190058;23;19939;-86
2022/04/05 12:53:28;;;;;;;;;;;12.60;99.90;;;;;;6166676;23;20353;-86
2022/04/05 12:56:24;;;;;;;;;;;;;;;;;;;;;
2022/04/05 12:59:04;;;;;;;;;;;12.60;99.90;;;;;;6217030;23;20003;-86
2022/04/05 13:01:42;;;;;;;;;;;12.50;99.90;;;;;;6190445;23;19951;-86
2022/04/05 13:04:07;;;;;;;;;;;12.50;99.90;;;;;;6191072;23;20307;-86
2022/04/05 13:06:33;;;;;;;;;;;12.40;99.90;;;;;;6166182;23;19946;-86
2022/04/05 13:09:24;;;;;;;;;;;12.50;99.90;;;;;;6190346;23;19987;-87
2022/04/05 13:12:09;;;;;;;;;;;12.40;99.90;;;;;;6216769;23;19984;-86
2022/04/05 13:14:38;;;;;;;;;;;12.40;99.90;;;;;;6189814;23;19911;-85
2022/04/05 13:23:49;;;;;;;;;;;;;;;;;;;;;
2022/04/05 13:26:23;;;;;;;;;;;12.30;99.90;;;;;;6217502;23;19991;-85
2022/04/05 13:29:19;;;;;;;;;;;12.30;99.90;;;;;;6191031;23;19962;-86
2022/04/05 13:32:07;;;;;;;;;;;12.30;99.90;;;;;;6184181;23;19904;-88
2022/04/05 13:34:42;;;;;;;;;;;12.40;99.90;;;;;;6193070;23;19904;-86
2022/04/05 13:37:07;;;;;;;;;;;12.40;99.90;;;;;;6241635;22;19910;-89
2022/04/05 13:39:35;;;;;;;;;;;12.40;99.90;;;;;;6246354;23;19899;-87
2022/04/05 13:42:02;;;;;;;;;;;12.40;99.90;;;;;;6245614;23;19914;-88
2022/04/05 13:44:38;;;;;;;;;;;12.40;99.90;;;;;;6246708;23;19952;-86
2022/04/05 13:47:07;;;;;;;;;;;12.40;99.90;;;;;;6225526;23;19908;-87
2022/04/05 13:49:42;;;;;;;;;;;12.40;99.90;;;;;;6220897;23;19904;-88
2022/04/05 13:52:46;;;;;;;;;;;;;;;;;;;;;
2022/04/05 13:55:12;;;;;;;;;;;12.30;99.90;;;;;;6250205;23;19990;-88
2022/04/05 13:57:46;;;;;;;;;;;12.30;99.90;;;;;;6223608;23;19984;-84
2022/04/05 14:00:29;;;;;;;;;;;12.30;99.90;;;;;;6223085;23;19950;-88
2022/04/05 14:02:55;;;;;;;;;;;12.30;99.90;;;;;;6222690;23;19926;-87
2022/04/05 14:05:23;;;;;;;;;;;12.30;99.90;;;;;;6222341;23;19938;-85
2022/04/05 14:07:51;;;;;;;;;;;12.30;99.90;;;;;;6221759;23;19962;-86
2022/04/05 14:10:44;;;;;;;;;;;;;;;;;;;;;
2022/04/05 14:13:33;;;;;;;;;;;12.30;99.90;;;;;;6249488;23;19991;-85
2022/04/05 14:15:59;;;;;;;;;;;12.20;99.90;;;;;;6223566;23;20232;-86
2022/04/05 14:18:29;;;;;;;;;;;12.10;99.90;;;;;;6223830;23;19912;-84
2022/04/05 14:20:58;;;;;;;;;;;12.10;99.90;;;;;;6222876;23;19910;-86
2022/04/05 14:23:43;;;;;;;;;;;12.20;99.90;;;;;;6222494;23;19904;-86
2022/04/05 14:26:18;;;;;;;;;;;12.10;99.90;;;;;;6222312;23;20010;-87
2022/04/05 14:32:12;;;;;;;;;;;12.20;99.90;;;;;;6203471;23;19907;-88
2022/04/05 14:38:16;;;;;;;;;;;;;;;;;;;;;
2022/04/05 14:44:18;;;;;;;;;;;;;;;;;;;;;
2022/04/05 14:47:05;;;;;;;;;;;;;;;;;;;;;
2022/04/05 14:49:59;;;;;;;;;;;;;;;;;;;;;
2022/04/05 14:53:04;;;;;;;;;;;;;;;;;;;;;
2022/04/05 14:55:41;;;;;;;;;;;12.30;99.90;;;;;;6246000;23;19970;-88
2022/04/05 14:59:10;;;;;;;;;;;;;;;;;;;;;
2022/04/05 15:01:52;;;;;;;;;;;;;;;;;;;;;
2022/04/05 15:04:33;;;;;;;;;;;;;;;;;;;;;
2022/04/05 15:07:49;;;;;;;;;;;;;;;;;;;;;
2022/04/05 15:13:14;;;;;;;;;;;12.30;99.90;;;;;;6211506;23;20334;-89
2022/04/05 15:18:55;;;;;;;;;;;12.30;99.90;;;;;;6274912;22;19911;-88
2022/04/05 15:21:23;;;;;;;;;;;12.30;99.90;;;;;;6232563;22;19892;-89
2022/04/05 15:24:32;;;;;;;;;;;;;;;;;;;;;
2022/04/05 15:26:56;;;;;;;;;;;12.20;99.90;;;;;;6245177;23;19904;-87
2022/04/05 15:29:32;;;;;;;;;;;12.30;99.90;;;;;;6222656;23;20277;-88
2022/04/05 15:32:10;;;;;;;;;;;;;;;;;;;;;
2022/04/05 15:37:37;;;;;;;;;;;;;;;;;;;;;
2022/04/05 15:40:11;;;;;;;;;;;12.20;99.90;;;;;;6248198;23;20397;-88
2022/04/05 15:43:04;;;;;;;;;;;;;;;;;;;;;
2022/04/05 15:45:49;;;;;;;;;;;;;;;;;;;;;
2022/04/05 15:48:17;;;;;;;;;;;12.00;99.90;;;;;;6247849;23;19986;-87
2022/04/05 15:50:59;;;;;;;;;;;;;;;;;;;;;
2022/04/05 15:53:37;;;;;;;;;;;;;;;;;;;;;
2022/04/05 15:56:29;;;;;;;;;;;11.90;99.90;;;;;;6248289;23;19948;-87
2022/04/05 15:59:03;;;;;;;;;;;11.90;99.90;;;;;;6221347;23;19991;-85
2022/04/05 16:01:38;;;;;;;;;;;11.90;99.90;;;;;;6194872;23;19965;-86
2022/04/05 16:04:14;;;;;;;;;;;11.90;99.90;;;;;;6221192;23;19904;-86
2022/04/05 16:06:40;;;;;;;;;;;11.90;99.90;;;;;;6198269;23;20266;-87
2022/04/05 16:09:10;;;;;;;;;;;11.90;99.90;;;;;;6247520;23;19910;-87
2022/04/05 16:11:57;;;;;;;;;;;11.90;99.90;;;;;;6196734;23;19908;-87
2022/04/05 16:14:30;;;;;;;;;;;12.00;99.90;;;;;;6220465;23;19903;-89
2022/04/05 16:17:00;;;;;;;;;;;11.90;99.90;;;;;;6195993;23;20326;-89
2022/04/05 16:19:54;;;;;;;;;;;12.00;99.90;;;;;;6196032;23;19915;-88
2022/04/05 16:22:31;;;;;;;;;;;11.90;99.90;;;;;;6247317;23;19903;-89
2022/04/05 16:24:59;;;;;;;;;;;11.90;99.90;;;;;;6197114;23;19961;-89
2022/04/05 16:33:15;;;;;;;;;;;;;;;;;;;;;
2022/04/05 16:35:56;;;;;;;;;;;12.00;99.90;;;;;;6248439;23;19983;-87
2022/04/05 16:38:40;;;;;;;;;;;12.00;99.90;;;;;;6223998;23;20289;-88
2022/04/05 16:41:06;;;;;;;;;;;12.00;99.90;;;;;;6221506;23;19962;-86
2022/04/05 16:43:42;;;;;;;;;;;12.00;99.90;;;;;;6221324;23;19903;-86
2022/04/05 16:46:20;;;;;;;;;;;;;;;;;;;;;
2022/04/05 16:48:51;;;;;;;;;;;11.90;99.90;;;;;;6227019;23;19986;-88
2022/04/05 16:51:19;;;;;;;;;;;11.90;99.90;;;;;;6224294;23;19903;-86
2022/04/05 16:53:59;;;;;;;;;;;11.90;99.90;;;;;;6224970;23;19979;-88
2022/04/05 16:56:55;;;;;;;;;;;12.00;99.90;;;;;;6230674;23;19908;-86
2022/04/05 16:59:31;;;;;;;;;;;11.90;99.90;;;;;;6248132;22;20310;-88
2022/04/05 17:01:57;;;;;;;;;;;11.90;99.90;;;;;;6248235;22;19927;-88
2022/04/05 17:04:46;;;;;;;;;;;;;;;;;;;;;
2022/04/05 17:08:20;;;;;;;;;;;11.90;99.90;;;;;;6263376;23;20249;-92
2022/04/05 17:10:37;;;;;;;;;;;;;;;;;;;;;
2022/04/05 17:13:10;;;;;;;;;;;11.90;99.90;;;;;;6227864;23;19938;-88
2022/04/05 17:15:41;;;;;;;;;;;11.90;99.90;;;;;;6224971;23;19904;-87
2022/04/05 17:18:25;;;;;;;;;;;11.80;99.90;;;;;;6199040;23;20249;-87
2022/04/05 17:20:53;;;;;;;;;;;11.80;99.90;;;;;;6251122;23;19915;-87
2022/04/05 17:23:21;;;;;;;;;;;11.80;99.90;;;;;;6223663;23;20038;-86
2022/04/05 17:25:48;;;;;;;;;;;11.80;99.90;;;;;;6199643;23;20323;-86
2022/04/05 17:28:13;;;;;;;;;;;11.80;99.90;;;;;;6225879;23;19911;-86
2022/04/05 17:30:57;;;;;;;;;;;11.80;99.90;;;;;;6226275;23;19904;-88
2022/04/05 17:33:24;;;;;;;;;;;11.80;99.90;;;;;;6225684;23;19903;-89
2022/04/05 17:35:50;;;;;;;;;;;11.80;99.90;;;;;;6225692;23;19923;-87
2022/04/05 17:38:17;;;;;;;;;;;11.80;99.90;;;;;;6200141;23;20330;-86
2022/04/05 17:40:46;;;;;;;;;;;11.80;99.90;;;;;;6201176;23;19954;-87
2022/04/05 17:43:12;;;;;;;;;;;11.80;99.90;;;;;;6225917;23;19911;-87
2022/04/05 17:45:40;;;;;;;;;;;11.80;99.90;;;;;;6225168;23;19903;-87
2022/04/05 17:48:09;;;;;;;;;;;11.80;99.90;;;;;;6224734;23;19903;-85
2022/04/05 17:50:35;;;;;;;;;;;11.70;99.90;;;;;;6222539;23;19910;-88
2022/04/05 17:53:00;;;;;;;;;;;11.70;99.90;;;;;;6225799;23;19903;-85
2022/04/05 17:55:27;;;;;;;;;;;11.70;99.90;;;;;;6224808;23;19911;-86
2022/04/05 17:58:12;;;;;;;;;;;11.70;99.90;;;;;;6252878;23;19904;-86
2022/04/05 18:00:40;;;;;;;;;;;11.60;99.90;;;;;;6200584;23;19916;-87
2022/04/05 18:03:30;;;;;;;;;;;11.60;99.90;;;;;;6225618;23;20314;-87
2022/04/05 18:05:56;;;;;;;;;;;11.60;99.90;;;;;;6226012;23;19910;-87
2022/04/05 18:08:28;;;;;;;;;;;11.60;99.90;;;;;;6225560;23;19903;-86
2022/04/05 18:10:55;;;;;;;;;;;11.60;99.90;;;;;;6225831;23;19952;-87
2022/04/05 18:13:21;;;;;;;;;;;11.50;99.90;;;;;;6225433;23;20237;-87
2022/04/05 18:15:55;;;;;;;;;;;11.60;99.90;;;;;;6225659;23;19911;-86
2022/04/05 18:18:23;;;;;;;;;;;11.50;99.90;;;;;;6226988;23;19904;-87
2022/04/05 18:20:57;;;;;;;;;;;11.50;99.90;;;;;;6225904;23;19912;-87
2022/04/05 18:23:25;;;;;;;;;;;11.50;99.90;;;;;;6252706;23;19910;-87
2022/04/05 18:25:54;;;;;;;;;;;11.50;99.90;;;;;;6226401;23;19904;-88
2022/04/05 18:28:24;;;;;;;;;;;11.50;99.90;;;;;;6226321;23;19907;-86
2022/04/05 18:30:51;;;;;;;;;;;11.50;99.90;;;;;;6226366;23;19903;-86
2022/04/05 18:33:21;;;;;;;;;;;11.50;99.90;;;;;;6225042;23;20337;-86
2022/04/05 18:35:51;;;;;;;;;;;11.50;99.90;;;;;;6228089;23;20270;-85
2022/04/05 18:38:18;;;;;;;;;;;11.50;99.90;;;;;;6243336;23;19915;-87
2022/04/05 18:40:47;;;;;;;;;;;11.50;99.90;;;;;;6223424;22;19903;-84
2022/04/05 18:43:14;;;;;;;;;;;11.40;99.90;;;;;;6249724;23;19903;-85
2022/04/05 18:45:45;;;;;;;;;;;11.50;99.90;;;;;;6248723;23;19892;-85
2022/04/05 18:48:13;;;;;;;;;;;11.40;99.90;;;;;;6255173;23;19911;-87
2022/04/05 18:50:41;;;;;;;;;;;11.40;99.90;;;;;;6225656;23;19947;-86
2022/04/05 18:53:08;;;;;;;;;;;11.40;99.90;;;;;;6251276;23;19911;-86
2022/04/05 18:55:33;;;;;;;;;;;11.40;99.90;;;;;;6198816;23;19907;-87
2022/04/05 18:58:14;;;;;;;;;;;11.40;99.90;;;;;;6200229;23;19935;-86
2022/04/05 19:00:41;;;;;;;;;;;11.40;99.90;;;;;;6225222;23;19916;-86
2022/04/05 19:03:09;;;;;;;;;;;11.40;99.90;;;;;;6223480;23;19910;-86
2022/04/05 19:05:37;;;;;;;;;;;11.40;99.90;;;;;;6223741;23;19931;-86
2022/04/05 19:08:06;;;;;;;;;;;11.40;99.90;;;;;;6223069;23;20215;-87
2022/04/05 19:10:42;;;;;;;;;;;11.40;99.90;;;;;;6224494;23;20029;-87
2022/04/05 19:13:24;;;;;;;;;;;;;;;;;;;;;
2022/04/05 19:15:55;;;;;;;;;;;11.30;99.90;;;;;;6251577;23;19952;-87
2022/04/05 19:18:50;;;;;;;;;;;11.30;99.90;;;;;;6199786;23;19954;-87
2022/04/05 19:21:20;;;;;;;;;;;11.30;99.90;;;;;;6250940;23;19915;-86
2022/04/05 19:24:10;;;;;;;;;;;11.30;99.90;;;;;;6224947;23;19911;-87
2022/04/05 19:26:46;;;;;;;;;;;11.30;99.90;;;;;;6250155;23;20384;-87
2022/04/05 19:29:24;;;;;;;;;;;11.20;99.90;;;;;;6224584;23;19904;-86
2022/04/05 19:32:07;;;;;;;;;;;11.20;99.90;;;;;;6222558;23;19904;-87
2022/04/05 19:34:50;;;;;;;;;;;11.20;99.90;;;;;;6223839;23;19910;-88
2022/04/05 19:37:19;;;;;;;;;;;11.10;99.90;;;;;;6224599;23;20323;-86
2022/04/05 19:39:49;;;;;;;;;;;11.10;99.90;;;;;;6251534;23;19927;-87